createdAt,value
2019-02-06T05:43:08.182Z,32.73
2019-02-06T05:45:37.451Z,30.02
2019-02-06T05:48:06.724Z,29.85
2019-02-06T05:50:36.011Z,28.32
2019-02-06T05:53:05.985Z,27.80
2019-02-06T05:55:35.174Z,26.60
2019-02-06T05:58:04.823Z,25.70
2019-02-06T06:00:49.092Z,24.52
2019-02-06T06:03:18.447Z,25.08
2019-02-06T06:05:48.232Z,25.32
2019-02-06T06:08:17.540Z,25.20
2019-02-06T06:10:46.746Z,26.02
2019-02-06T06:13:18.459Z,27.17
2019-02-06T06:15:46.926Z,26.37
2019-02-06T06:18:16.228Z,26.57
2019-02-06T06:20:45.536Z,26.82
2019-02-06T06:23:14.733Z,26.77
2019-02-06T06:25:44.085Z,27.48
2019-02-06T06:28:13.356Z,27.00
2019-02-06T06:30:42.562Z,27.05
2019-02-06T06:33:11.858Z,27.62
2019-02-06T06:35:41.154Z,27.35
2019-02-06T06:38:10.827Z,27.57
2019-02-06T06:40:40.110Z,27.48
2019-02-06T06:43:09.501Z,27.42
2019-02-06T06:45:39.165Z,26.87
2019-02-06T06:48:08.373Z,26.62
2019-02-06T06:50:37.635Z,27.80
2019-02-06T06:53:09.026Z,26.75
2019-02-06T06:55:38.689Z,27.25
2019-02-06T06:58:07.972Z,28.00
2019-02-06T07:00:37.168Z,27.25
2019-02-06T07:03:06.518Z,25.97
2019-02-06T07:05:35.786Z,26.52
2019-02-06T07:08:09.619Z,25.17
2019-02-06T07:10:36.947Z,26.20
2019-02-06T07:13:06.415Z,27.42
2019-02-06T07:15:36.247Z,27.30
2019-02-06T07:18:07.210Z,25.90
2019-02-06T07:20:36.511Z,25.03
2019-02-06T07:23:05.997Z,24.87
2019-02-06T07:25:35.212Z,27.27
2019-02-06T07:28:04.403Z,25.07
2019-02-06T07:30:36.510Z,23.47
2019-02-06T07:33:06.378Z,22.90
2019-02-06T07:35:35.614Z,24.73
2019-02-06T07:38:05.173Z,24.65
2019-02-06T07:40:34.506Z,24.50
2019-02-06T07:43:03.823Z,24.67
2019-02-06T07:45:33.116Z,23.02
2019-02-06T07:48:02.432Z,23.37
2019-02-06T07:50:33.140Z,23.30
2019-02-06T07:53:02.825Z,21.95
2019-02-06T07:55:32.134Z,21.63
2019-02-06T07:58:01.421Z,22.62
2019-02-06T08:00:30.806Z,20.90
2019-02-06T08:03:01.164Z,23.53
2019-02-06T08:05:30.893Z,22.70
2019-02-06T08:08:00.171Z,20.67
2019-02-06T08:10:33.196Z,20.93
2019-02-06T08:13:03.127Z,20.23
2019-02-06T08:15:32.703Z,22.43
2019-02-06T08:18:02.178Z,23.70
2019-02-06T08:20:31.356Z,23.43
2019-02-06T08:23:00.760Z,23.97
2019-02-06T08:25:30.127Z,25.47
2019-02-06T08:27:59.343Z,23.67
2019-02-06T08:30:34.374Z,22.33
2019-02-06T08:33:03.961Z,22.90
2019-02-06T08:35:34.003Z,23.97
2019-02-06T08:38:03.397Z,23.37
2019-02-06T08:40:33.558Z,23.73
2019-02-06T08:43:03.106Z,22.43
2019-02-06T08:45:32.479Z,23.17
2019-02-06T08:48:01.696Z,23.07
2019-02-06T08:50:31.956Z,25.87
2019-02-06T08:53:01.332Z,22.07
2019-02-06T08:55:31.835Z,21.43
2019-02-06T08:58:01.840Z,23.17
2019-02-06T09:00:36.988Z,22.70
2019-02-06T09:03:07.436Z,23.70
2019-02-06T09:05:36.654Z,23.03
2019-02-06T09:08:07.905Z,22.83
2019-02-06T09:10:37.152Z,21.57
2019-02-06T09:13:07.212Z,21.80
2019-02-06T09:15:36.505Z,20.77
2019-02-06T09:18:06.952Z,22.73
2019-02-06T09:20:36.300Z,22.53
2019-02-06T09:23:06.136Z,21.07
2019-02-06T09:25:35.412Z,20.63
2019-02-06T09:28:04.612Z,20.00
2019-02-06T09:30:34.796Z,21.50
2019-02-06T09:33:06.169Z,20.67
2019-02-06T09:35:35.526Z,20.03
2019-02-06T09:38:05.163Z,20.40
2019-02-06T09:40:34.590Z,18.60
2019-02-06T09:43:03.812Z,19.90
2019-02-06T09:45:32.993Z,20.37
2019-02-06T09:48:02.392Z,20.00
2019-02-06T09:50:34.452Z,18.70
2019-02-06T09:53:03.774Z,19.33
2019-02-06T09:55:33.080Z,20.87
2019-02-06T09:58:02.475Z,20.33
2019-02-06T10:00:34.619Z,19.63
2019-02-06T10:03:06.165Z,21.03
2019-02-06T10:05:35.397Z,19.37
2019-02-06T10:08:05.970Z,19.30
2019-02-06T10:10:35.808Z,20.10
2019-02-06T10:13:06.758Z,19.63
2019-02-06T10:15:37.742Z,19.93
2019-02-06T10:18:08.103Z,19.70
2019-02-06T10:20:41.373Z,20.60
2019-02-06T10:23:11.152Z,21.93
2019-02-06T10:25:40.826Z,21.27
2019-02-06T10:28:10.708Z,21.90
2019-02-06T10:30:48.692Z,23.67
2019-02-06T10:33:19.010Z,23.43
2019-02-06T10:35:52.334Z,22.40
2019-02-06T10:38:24.407Z,25.03
2019-02-06T10:40:53.703Z,23.70
2019-02-06T10:43:32.100Z,25.30
2019-02-06T10:45:57.072Z,22.53
2019-02-06T10:48:26.460Z,24.00
2019-02-06T10:50:58.398Z,24.70
2019-02-06T10:53:27.212Z,25.20
2019-02-06T10:55:56.491Z,24.57
2019-02-06T10:58:25.858Z,25.70
2019-02-06T11:00:58.932Z,23.80
2019-02-06T11:03:28.314Z,25.30
2019-02-06T11:05:57.930Z,24.37
2019-02-06T11:08:27.184Z,25.27
2019-02-06T11:10:57.009Z,25.30
2019-02-06T11:13:26.221Z,23.57
2019-02-06T11:15:55.443Z,24.27
2019-02-06T11:18:24.692Z,22.87
2019-02-06T11:20:53.955Z,23.17
2019-02-06T11:23:23.211Z,21.63
2019-02-06T11:25:52.554Z,22.40
2019-02-06T11:28:21.958Z,22.03
2019-02-06T11:30:52.419Z,22.40
2019-02-06T11:33:24.756Z,22.97
2019-02-06T11:35:54.016Z,22.33
2019-02-06T11:38:23.315Z,24.47
2019-02-06T11:40:53.187Z,23.63
2019-02-06T11:43:22.539Z,23.87
2019-02-06T11:45:52.275Z,23.43
2019-02-06T11:48:21.897Z,24.73
2019-02-06T11:50:51.287Z,25.93
2019-02-06T11:53:26.320Z,26.30
2019-02-06T11:55:55.638Z,25.33
2019-02-06T11:58:25.192Z,25.50
2019-02-06T12:01:25.859Z,25.13
2019-02-06T12:04:00.273Z,25.67
2019-02-06T12:06:29.709Z,27.00
2019-02-06T12:09:00.194Z,27.33
2019-02-06T12:11:29.377Z,27.03
2019-02-06T12:13:58.598Z,23.50
2019-02-06T12:16:27.954Z,29.72
2019-02-06T12:18:57.705Z,27.07
2019-02-06T12:21:27.019Z,27.37
2019-02-06T12:23:56.292Z,27.93
2019-02-06T12:26:25.628Z,26.73
2019-02-06T12:28:54.963Z,27.47
2019-02-06T12:31:24.151Z,26.97
2019-02-06T12:33:54.033Z,27.33
2019-02-06T12:36:23.550Z,26.30
2019-02-06T12:38:53.978Z,25.57
2019-02-06T12:41:23.420Z,27.90
2019-02-06T12:43:53.970Z,26.33
2019-02-06T12:46:23.652Z,27.37
2019-02-06T12:48:52.906Z,27.53
2019-02-06T12:51:22.661Z,26.07
2019-02-06T12:53:51.881Z,26.70
2019-02-06T12:56:21.142Z,26.87
2019-02-06T12:58:50.450Z,27.23
2019-02-06T13:01:19.790Z,28.67
2019-02-06T13:03:49.167Z,28.50
2019-02-06T13:06:18.519Z,28.10
2019-02-06T13:08:47.839Z,27.93
2019-02-06T13:11:17.007Z,27.50
2019-02-06T13:13:46.249Z,28.57
2019-02-06T13:16:15.540Z,27.40
2019-02-06T13:18:44.786Z,28.93
2019-02-06T13:21:14.388Z,27.33
2019-02-06T13:23:43.689Z,27.63
2019-02-06T13:26:13.108Z,27.83
2019-02-06T13:28:42.616Z,28.70
2019-02-06T13:31:11.985Z,27.87
2019-02-06T13:33:41.475Z,27.50
2019-02-06T13:36:11.639Z,28.27
2019-02-06T13:38:40.986Z,27.80
2019-02-06T13:41:10.265Z,28.03
2019-02-06T13:43:39.468Z,27.57
2019-02-06T13:46:09.051Z,28.97
2019-02-06T13:48:38.329Z,28.50
2019-02-06T13:51:15.872Z,26.87
2019-02-06T13:53:38.543Z,29.33
2019-02-06T13:56:07.820Z,29.07
2019-02-06T13:58:37.108Z,30.03
2019-02-06T14:01:06.280Z,30.27
2019-02-06T14:03:35.543Z,29.70
2019-02-06T14:06:05.720Z,29.47
2019-02-06T14:08:35.708Z,29.23
2019-02-06T14:11:04.928Z,32.17
2019-02-06T14:13:34.137Z,30.60
2019-02-06T14:16:03.881Z,30.67
2019-02-06T14:18:33.247Z,31.00
2019-02-06T14:21:02.599Z,31.10
2019-02-06T14:24:12.819Z,31.80
2019-02-06T14:27:32.156Z,31.93
2019-02-06T14:30:45.612Z,33.23
2019-02-06T14:33:46.271Z,32.77
2019-02-06T14:36:52.392Z,31.63
2019-02-06T14:40:02.921Z,34.27
2019-02-06T14:43:06.584Z,33.47
2019-02-06T14:46:11.735Z,34.43
2019-02-06T14:49:10.432Z,33.00
2019-02-06T14:51:58.368Z,30.93
2019-02-06T14:54:51.148Z,31.40
2019-02-06T14:57:38.156Z,30.13
2019-02-06T15:01:07.215Z,31.13
2019-02-06T15:04:04.989Z,30.20
2019-02-06T15:07:14.260Z,38.37
2019-02-06T15:10:15.440Z,30.17
2019-02-06T15:13:04.807Z,34.87
2019-02-06T15:15:43.247Z,31.10
2019-02-06T15:18:53.009Z,31.47
2019-02-06T15:21:53.871Z,30.13
2019-02-06T15:25:13.236Z,29.90
2019-02-06T15:28:29.088Z,29.03
2019-02-06T15:31:33.660Z,31.70
2019-02-06T15:34:39.538Z,32.93
2019-02-06T15:37:48.760Z,31.70
2019-02-06T15:40:58.076Z,31.23
2019-02-06T15:44:38.134Z,28.87
2019-02-06T15:47:34.346Z,30.67
2019-02-06T15:51:05.815Z,30.92
2019-02-06T15:54:07.170Z,32.53
2019-02-06T15:57:02.475Z,33.30
2019-02-06T16:00:03.654Z,32.30
2019-02-06T16:03:08.967Z,33.27
2019-02-06T16:06:27.622Z,33.55
2019-02-06T16:09:20.794Z,35.45
2019-02-06T16:12:19.984Z,34.43
2019-02-06T16:15:14.230Z,33.25
2019-02-06T16:18:26.782Z,34.38
2019-02-06T16:21:29.595Z,33.08
2019-02-06T16:24:13.525Z,32.42
2019-02-06T16:27:19.832Z,30.88
2019-02-06T16:30:15.572Z,31.48
2019-02-06T16:33:13.363Z,32.65
2019-02-06T16:36:09.385Z,32.15
2019-02-06T16:39:05.690Z,32.55
2019-02-06T16:42:12.371Z,32.93
2019-02-06T16:45:35.668Z,33.45
2019-02-06T16:48:28.932Z,32.73
2019-02-06T16:51:09.698Z,31.15
2019-02-06T16:54:14.976Z,32.80
2019-02-06T16:57:22.108Z,34.58
2019-02-06T17:00:44.393Z,36.50
2019-02-06T17:04:04.362Z,35.28
2019-02-06T17:06:53.591Z,36.05
2019-02-06T17:09:51.830Z,32.75
2019-02-06T17:12:39.394Z,35.40
2019-02-06T17:15:52.752Z,37.40
2019-02-06T17:19:00.838Z,35.83
2019-02-06T17:22:02.920Z,37.60
2019-02-06T17:25:21.608Z,34.75
2019-02-06T17:28:19.996Z,36.15
2019-02-06T17:31:26.699Z,36.60
2019-02-06T17:34:27.189Z,37.63
2019-02-06T17:37:28.692Z,39.00
2019-02-06T17:40:23.749Z,36.80
2019-02-06T17:43:48.390Z,36.28
2019-02-06T17:47:02.107Z,37.05
2019-02-06T17:50:05.424Z,34.90
2019-02-06T17:53:10.074Z,32.90
2019-02-06T17:55:39.555Z,32.53
2019-02-06T17:58:11.614Z,31.60
2019-02-06T18:00:57.054Z,32.67
2019-02-06T18:03:27.384Z,33.15
2019-02-06T18:05:56.691Z,33.33
2019-02-06T18:08:26.053Z,33.20
2019-02-06T18:10:55.351Z,31.73
2019-02-06T18:13:24.709Z,30.97
2019-02-06T18:15:54.013Z,31.85
2019-02-06T18:18:24.170Z,34.23
2019-02-06T18:20:53.472Z,31.77
2019-02-06T18:23:22.877Z,32.28
2019-02-06T18:25:53.312Z,33.70
2019-02-06T18:28:22.582Z,35.10
2019-02-06T18:30:52.156Z,32.90
2019-02-06T18:33:21.917Z,34.18
2019-02-06T18:35:51.742Z,33.83
2019-02-06T18:38:21.238Z,35.23
2019-02-06T18:40:50.529Z,34.23
2019-02-06T18:43:19.887Z,34.48
2019-02-06T18:45:49.508Z,34.25
2019-02-06T18:48:21.710Z,31.77
2019-02-06T18:50:51.594Z,34.20
2019-02-06T18:53:20.885Z,34.93
2019-02-06T18:55:51.301Z,35.30
2019-02-06T18:58:20.729Z,34.25
2019-02-06T19:00:50.172Z,33.38
2019-02-06T19:03:22.642Z,33.28
2019-02-06T19:05:52.056Z,33.80
2019-02-06T19:08:21.444Z,34.50
2019-02-06T19:10:53.180Z,34.30
2019-02-06T19:13:23.456Z,34.05
2019-02-06T19:15:56.663Z,31.67
2019-02-06T19:18:24.551Z,32.87
2019-02-06T19:20:53.957Z,33.33
2019-02-06T19:23:23.247Z,35.52
2019-02-06T19:25:52.993Z,32.47
2019-02-06T19:28:22.274Z,34.97
2019-02-06T19:30:55.544Z,37.78
2019-02-06T19:33:24.178Z,37.55
2019-02-06T19:35:53.542Z,34.58
2019-02-06T19:38:22.891Z,34.40
2019-02-06T19:40:52.248Z,33.90
2019-02-06T19:43:22.355Z,34.83
2019-02-06T19:45:51.611Z,34.43
2019-02-06T19:48:22.386Z,31.55
2019-02-06T19:50:52.797Z,32.67
2019-02-06T19:53:22.197Z,31.00
2019-02-06T19:55:52.070Z,32.87
2019-02-06T19:58:21.407Z,32.33
2019-02-06T20:00:51.091Z,30.73
2019-02-06T20:03:20.399Z,32.98
2019-02-06T20:05:50.121Z,32.58
2019-02-06T20:08:19.540Z,31.48
2019-02-06T20:10:49.899Z,34.20
2019-02-06T20:13:19.287Z,33.95
2019-02-06T20:15:48.645Z,32.50
2019-02-06T20:18:18.604Z,31.93
2019-02-06T20:20:48.458Z,31.20
2019-02-06T20:23:17.822Z,31.17
2019-02-06T20:25:47.089Z,32.90
2019-02-06T20:28:16.608Z,35.50
2019-02-06T20:30:45.882Z,35.63
2019-02-06T20:33:15.690Z,34.08
2019-02-06T20:35:44.996Z,35.63
2019-02-06T20:38:14.309Z,34.95
2019-02-06T20:40:43.792Z,37.73
2019-02-06T20:43:21.656Z,31.35
2019-02-06T20:45:44.049Z,30.65
2019-02-06T20:48:13.416Z,31.10
2019-02-06T20:50:43.236Z,29.27
2019-02-06T20:53:12.628Z,31.40
2019-02-06T20:55:41.982Z,30.50
2019-02-06T20:58:11.343Z,34.58
2019-02-06T21:00:40.735Z,32.33
2019-02-06T21:03:10.036Z,33.28
2019-02-06T21:05:40.817Z,29.10
2019-02-06T21:08:10.123Z,29.07
2019-02-06T21:10:39.411Z,31.65
2019-02-06T21:13:08.717Z,30.53
2019-02-06T21:15:38.115Z,32.70
2019-02-06T21:18:07.489Z,31.20
2019-02-06T21:20:36.873Z,31.23
2019-02-06T21:23:06.264Z,30.37
2019-02-06T21:25:35.730Z,30.20
2019-02-06T21:28:05.064Z,27.50
2019-02-06T21:30:35.920Z,27.50
2019-02-06T21:33:05.724Z,27.42
2019-02-06T21:35:35.087Z,29.23
2019-02-06T21:38:04.717Z,30.97
2019-02-06T21:40:35.449Z,29.65
2019-02-06T21:43:05.734Z,28.23
2019-02-06T21:45:35.019Z,30.33
2019-02-06T21:48:04.986Z,30.12
2019-02-06T21:50:34.285Z,31.52
2019-02-06T21:53:03.561Z,32.48
2019-02-06T21:55:33.129Z,30.57
2019-02-06T21:58:02.421Z,29.55
2019-02-06T22:00:37.979Z,30.68
2019-02-06T22:03:10.538Z,31.93
2019-02-06T22:05:38.696Z,31.87
2019-02-06T22:08:08.179Z,32.48
2019-02-06T22:10:37.611Z,30.45
2019-02-06T22:13:07.586Z,28.80
2019-02-06T22:15:36.882Z,28.35
2019-02-06T22:18:06.294Z,28.45
2019-02-06T22:20:35.531Z,31.35
2019-02-06T22:23:05.065Z,29.07
2019-02-06T22:25:34.543Z,25.88
2019-02-06T22:28:03.926Z,27.55
